createdAt,value
2022-08-17T00:00:43.466Z,40.22
2022-08-17T00:03:25.806Z,38.47
2022-08-17T00:06:13.934Z,39.70
2022-08-17T00:08:46.353Z,39.63
2022-08-17T00:11:22.213Z,42.25
2022-08-17T00:13:56.016Z,40.53
2022-08-17T00:16:56.264Z,40.35
2022-08-17T00:19:26.104Z,40.50
2022-08-17T00:22:31.643Z,42.03
2022-08-17T00:24:45.539Z,42.70
2022-08-17T00:27:13.133Z,44.42
2022-08-17T00:29:41.166Z,41.95
2022-08-17T00:33:11.612Z,46.00
2022-08-17T00:34:56.474Z,44.28
2022-08-17T00:37:24.076Z,45.72
2022-08-17T00:39:51.931Z,46.65
2022-08-17T00:42:19.866Z,48.22
2022-08-17T00:44:47.903Z,45.80
2022-08-17T00:47:15.646Z,45.92
2022-08-17T00:49:43.466Z,46.20
2022-08-17T00:52:20.572Z,49.03
2022-08-17T00:54:52.355Z,50.88
2022-08-17T00:57:34.815Z,49.78
2022-08-17T01:00:26.450Z,53.50
2022-08-17T01:03:19.488Z,53.20
2022-08-17T01:05:50.163Z,53.53
2022-08-17T01:08:22.535Z,53.05
2022-08-17T01:10:58.159Z,51.83
2022-08-17T01:13:41.109Z,55.95
2022-08-17T01:16:32.088Z,55.08
2022-08-17T01:19:09.251Z,52.08
2022-08-17T01:22:04.082Z,54.00
2022-08-17T01:24:34.154Z,58.70
2022-08-17T01:27:02.816Z,61.35
2022-08-17T01:29:42.879Z,62.97
2022-08-17T01:32:10.702Z,66.40
2022-08-17T01:34:50.596Z,64.60
2022-08-17T01:37:32.600Z,62.83
2022-08-17T01:40:16.146Z,67.38
2022-08-17T01:42:56.817Z,65.38
2022-08-17T01:45:33.732Z,67.28
2022-08-17T01:48:01.532Z,65.80
2022-08-17T01:50:37.892Z,64.68
2022-08-17T01:53:22.505Z,63.85
2022-08-17T01:55:55.099Z,65.82
2022-08-17T01:58:23.308Z,65.10
2022-08-17T02:01:00.649Z,66.75
2022-08-17T02:03:30.232Z,67.55
2022-08-17T02:05:58.243Z,70.07
2022-08-17T02:08:37.190Z,68.10
2022-08-17T02:11:14.639Z,66.38
2022-08-17T02:13:45.510Z,68.53
2022-08-17T02:16:13.790Z,70.38
2022-08-17T02:18:41.659Z,71.28
2022-08-17T02:21:09.902Z,72.57
2022-08-17T02:23:42.165Z,68.15
2022-08-17T02:26:10.568Z,71.75
2022-08-17T02:28:53.596Z,67.47
2022-08-17T02:31:21.395Z,67.43
2022-08-17T02:34:00.330Z,70.82
2022-08-17T02:36:36.414Z,66.28
2022-08-17T02:39:09.997Z,70.40
2022-08-17T02:41:39.878Z,68.53
2022-08-17T02:44:08.189Z,68.28
2022-08-17T02:46:36.060Z,70.40
2022-08-17T02:49:05.206Z,72.82
2022-08-17T02:51:34.977Z,69.68
2022-08-17T02:54:40.076Z,68.53
2022-08-17T02:56:51.592Z,69.28
2022-08-17T02:59:19.218Z,70.00
2022-08-17T03:01:47.027Z,67.75
2022-08-17T03:04:15.984Z,65.53
2022-08-17T03:06:43.691Z,65.93
2022-08-17T03:09:11.380Z,65.07
2022-08-17T03:11:39.172Z,65.68
2022-08-17T03:14:06.765Z,62.65
2022-08-17T03:16:34.519Z,65.90
2022-08-17T03:19:02.385Z,67.68
2022-08-17T03:21:30.073Z,61.75
2022-08-17T03:23:58.164Z,61.78
2022-08-17T03:26:25.902Z,63.33
2022-08-17T03:28:57.689Z,64.85
2022-08-17T03:31:25.276Z,60.75
2022-08-17T03:33:52.924Z,63.65
2022-08-17T03:36:20.565Z,62.33
2022-08-17T03:38:48.199Z,65.90
2022-08-17T03:41:18.879Z,57.75
2022-08-17T03:43:49.205Z,60.97
2022-08-17T03:46:35.727Z,64.13
2022-08-17T03:49:27.223Z,61.83
2022-08-17T03:52:14.850Z,58.75
2022-08-17T03:55:06.030Z,62.78
2022-08-17T03:57:33.701Z,64.20
2022-08-17T04:00:01.449Z,64.57
2022-08-17T04:02:39.645Z,63.13
2022-08-17T04:05:08.074Z,64.75
2022-08-17T04:07:35.991Z,63.72
2022-08-17T04:10:04.245Z,62.78
2022-08-17T04:12:49.258Z,63.03
2022-08-17T04:15:18.575Z,62.93
2022-08-17T04:17:46.301Z,69.15
2022-08-17T04:20:16.638Z,68.38
2022-08-17T04:23:00.147Z,65.30
2022-08-17T04:25:29.710Z,64.55
2022-08-17T04:27:59.051Z,66.32
2022-08-17T04:30:31.211Z,67.10
2022-08-17T04:33:08.824Z,67.25
2022-08-17T04:35:46.992Z,65.07
2022-08-17T04:38:19.551Z,69.38
2022-08-17T04:41:07.511Z,65.80
2022-08-17T04:43:37.687Z,68.10
2022-08-17T04:46:09.357Z,62.58
2022-08-17T04:48:42.699Z,70.80
2022-08-17T04:51:20.975Z,70.53
2022-08-17T04:53:54.335Z,69.35
2022-08-17T04:56:25.867Z,66.07
2022-08-17T04:58:57.757Z,73.55
2022-08-17T05:01:28.958Z,73.28
2022-08-17T05:04:00.151Z,70.03
2022-08-17T05:06:46.982Z,62.80
2022-08-17T05:09:14.681Z,72.97
2022-08-17T05:11:45.031Z,70.05
2022-08-17T05:14:13.916Z,73.05
2022-08-17T05:16:41.813Z,76.05
2022-08-17T05:19:09.601Z,75.32
2022-08-17T05:21:37.230Z,68.25
2022-08-17T05:24:07.144Z,71.95
2022-08-17T05:26:52.731Z,72.45
2022-08-17T05:29:20.411Z,65.78
2022-08-17T05:31:48.583Z,65.05
2022-08-17T05:34:16.711Z,64.78
2022-08-17T05:36:45.243Z,71.00
2022-08-17T05:39:16.385Z,68.95
2022-08-17T05:41:47.965Z,64.88
2022-08-17T05:44:17.013Z,69.05
2022-08-17T05:46:50.437Z,61.28
2022-08-17T05:49:27.141Z,65.85
2022-08-17T05:52:32.246Z,63.85
2022-08-17T05:55:17.951Z,63.75
2022-08-17T05:58:41.909Z,63.58
2022-08-17T06:01:44.137Z,61.92
2022-08-17T06:04:42.237Z,60.03
2022-08-17T06:07:46.095Z,62.53
2022-08-17T06:10:27.043Z,63.38
2022-08-17T06:13:18.682Z,63.78
2022-08-17T06:16:05.281Z,59.00
2022-08-17T06:19:34.392Z,60.83
2022-08-17T06:22:05.828Z,62.25
2022-08-17T06:24:48.071Z,66.88
2022-08-17T06:27:57.470Z,64.95
2022-08-17T06:30:41.387Z,59.15
2022-08-17T06:33:29.725Z,57.33
2022-08-17T06:36:26.420Z,66.72
2022-08-17T06:39:09.062Z,66.18
2022-08-17T06:41:54.776Z,58.55
2022-08-17T06:45:18.870Z,67.57
2022-08-17T06:48:25.646Z,63.83
2022-08-17T06:51:17.057Z,58.80
2022-08-17T06:54:06.857Z,55.55
2022-08-17T06:56:55.410Z,60.03
2022-08-17T06:59:56.670Z,63.58
2022-08-17T07:03:03.055Z,64.05
2022-08-17T07:05:46.558Z,65.65
2022-08-17T07:08:29.692Z,61.17
2022-08-17T07:11:05.439Z,55.22
2022-08-17T07:14:17.408Z,61.53
2022-08-17T07:16:54.146Z,63.10
2022-08-17T07:19:25.777Z,64.72
2022-08-17T07:22:20.903Z,56.55
2022-08-17T07:24:57.393Z,60.25
2022-08-17T07:27:38.482Z,56.55
2022-08-17T07:30:27.552Z,51.95
2022-08-17T07:33:02.973Z,49.63
2022-08-17T07:35:37.968Z,58.13
2022-08-17T07:38:24.245Z,61.92
2022-08-17T07:40:58.209Z,58.08
2022-08-17T07:43:40.452Z,59.35
2022-08-17T07:46:43.760Z,55.95
2022-08-17T07:49:12.581Z,53.13
2022-08-17T07:51:43.283Z,59.55
2022-08-17T07:54:22.461Z,59.13
2022-08-17T07:56:53.592Z,57.67
2022-08-17T07:59:33.734Z,57.55
2022-08-17T08:02:06.133Z,61.45
2022-08-17T08:05:00.563Z,54.42
2022-08-17T08:07:35.622Z,52.47
2022-08-17T08:10:11.342Z,53.30
2022-08-17T08:12:48.169Z,57.05
2022-08-17T08:15:25.652Z,49.67
2022-08-17T08:18:04.134Z,53.65
2022-08-17T08:20:53.535Z,53.75
2022-08-17T08:23:37.031Z,51.40
2022-08-17T08:26:35.275Z,46.70
2022-08-17T08:29:15.293Z,50.05
2022-08-17T08:32:13.709Z,49.13
2022-08-17T08:35:13.177Z,48.58
2022-08-17T08:38:14.448Z,48.15
2022-08-17T08:41:00.338Z,50.22
2022-08-17T08:43:55.299Z,50.35
2022-08-17T08:46:41.090Z,50.10
2022-08-17T08:50:01.885Z,49.30
2022-08-17T08:52:58.119Z,50.60
2022-08-17T08:55:56.573Z,51.58
2022-08-17T08:58:50.438Z,48.95
2022-08-17T09:01:31.332Z,55.45
2022-08-17T09:04:25.552Z,55.78
2022-08-17T09:07:36.766Z,51.63
2022-08-17T09:10:16.508Z,46.35
2022-08-17T09:13:30.248Z,50.83
2022-08-17T09:16:05.442Z,53.63
2022-08-17T09:19:00.743Z,51.03
2022-08-17T09:21:47.977Z,52.38
2022-08-17T09:24:29.804Z,54.25
2022-08-17T09:27:13.460Z,53.35
2022-08-17T09:29:55.044Z,53.53
2022-08-17T09:32:32.676Z,55.47
2022-08-17T09:35:14.241Z,58.53
2022-08-17T09:38:09.916Z,54.20
2022-08-17T09:40:59.350Z,55.50
2022-08-17T09:43:43.815Z,58.22
2022-08-17T09:46:53.486Z,59.03
2022-08-17T09:49:49.683Z,55.05
2022-08-17T09:52:24.664Z,59.47
2022-08-17T09:54:56.309Z,57.13
2022-08-17T09:57:44.037Z,57.22
2022-08-17T10:00:33.280Z,54.65
2022-08-17T10:03:00.846Z,53.05
2022-08-17T10:06:06.839Z,55.15
2022-08-17T10:08:53.137Z,51.05
2022-08-17T10:12:10.089Z,50.67
2022-08-17T10:15:11.618Z,48.72
2022-08-17T10:18:22.578Z,50.92
2022-08-17T10:21:26.250Z,52.05
2022-08-17T10:24:21.380Z,50.92
2022-08-17T10:26:57.040Z,50.28
2022-08-17T10:29:44.162Z,50.60
2022-08-17T10:32:32.839Z,46.65
2022-08-17T10:35:16.815Z,46.45
2022-08-17T10:38:25.449Z,52.05
2022-08-17T10:41:09.743Z,51.05
2022-08-17T10:44:38.414Z,51.58
2022-08-17T10:46:57.371Z,53.47
2022-08-17T10:49:33.901Z,51.00
2022-08-17T10:52:24.977Z,51.65
2022-08-17T10:54:57.861Z,56.17
2022-08-17T10:57:38.683Z,49.58
2022-08-17T11:00:40.847Z,56.35
2022-08-17T11:03:23.555Z,55.15
2022-08-17T11:06:37.459Z,58.58
2022-08-17T11:09:41.332Z,51.42
2022-08-17T11:12:37.697Z,58.05
2022-08-17T11:18:54.457Z,61.85
2022-08-17T11:21:58.369Z,60.90
2022-08-17T11:24:47.906Z,62.17
2022-08-17T11:27:27.937Z,61.15
2022-08-17T11:30:02.130Z,59.58
2022-08-17T11:32:54.589Z,55.73
2022-08-17T11:35:22.664Z,49.78
2022-08-17T11:38:07.765Z,43.85
2022-08-17T11:41:27.415Z,38.65
2022-08-17T11:44:16.045Z,36.60
2022-08-17T11:47:57.019Z,36.97
2022-08-17T11:51:15.500Z,34.65
2022-08-17T11:54:31.735Z,34.25
2022-08-17T11:56:54.589Z,35.45
2022-08-17T11:59:36.987Z,36.75
2022-08-17T12:02:38.749Z,34.13
2022-08-17T12:05:16.960Z,32.53
2022-08-17T12:08:06.274Z,30.23
2022-08-17T12:10:41.323Z,29.88
2022-08-17T12:13:16.146Z,29.33
2022-08-17T12:15:50.641Z,30.98
2022-08-17T12:18:30.075Z,30.67
2022-08-17T12:21:22.259Z,31.52
2022-08-17T12:24:10.409Z,31.05
2022-08-17T12:26:38.323Z,30.02
2022-08-17T12:29:18.223Z,31.15
2022-08-17T12:32:05.840Z,30.65
2022-08-17T12:34:42.426Z,31.85
2022-08-17T12:37:21.440Z,32.25
2022-08-17T12:39:57.637Z,30.42
2022-08-17T12:42:34.863Z,35.30
2022-08-17T12:45:08.201Z,39.20
2022-08-17T12:47:37.987Z,38.95
2022-08-17T12:50:28.558Z,46.33
2022-08-17T12:53:02.062Z,43.83
2022-08-17T12:55:36.709Z,47.67
2022-08-17T12:58:05.059Z,46.92
2022-08-17T13:00:47.577Z,47.42
2022-08-17T13:03:22.218Z,43.80
2022-08-17T13:05:52.861Z,45.67
2022-08-17T13:08:39.396Z,42.17
2022-08-17T13:11:14.647Z,42.40
2022-08-17T13:14:09.820Z,38.28
2022-08-17T13:16:37.776Z,42.83
2022-08-17T13:19:15.409Z,41.47
2022-08-17T13:22:04.224Z,39.15
2022-08-17T13:24:38.094Z,36.17
2022-08-17T13:27:10.380Z,35.42
2022-08-17T13:29:51.167Z,40.95
2022-08-17T13:32:33.481Z,38.88
2022-08-17T13:35:14.123Z,35.45
2022-08-17T13:38:01.728Z,38.72
2022-08-17T13:40:50.041Z,37.10
2022-08-17T13:43:44.879Z,36.55
2022-08-17T13:46:22.401Z,35.53
2022-08-17T13:49:12.050Z,36.50
2022-08-17T13:51:46.561Z,35.67
2022-08-17T13:54:34.234Z,33.70
2022-08-17T13:57:23.610Z,38.97
2022-08-17T13:59:57.311Z,36.85
2022-08-17T14:02:27.938Z,41.67
2022-08-17T14:04:58.495Z,39.03
2022-08-17T14:07:32.526Z,39.72
2022-08-17T14:10:15.786Z,42.58
2022-08-17T14:12:45.130Z,41.53
2022-08-17T14:15:16.303Z,41.58
2022-08-17T14:17:44.385Z,42.97
2022-08-17T14:20:13.825Z,37.55
2022-08-17T14:22:49.497Z,39.80
2022-08-17T14:25:25.131Z,42.67
2022-08-17T14:30:29.651Z,43.38
2022-08-17T14:32:58.768Z,43.38
2022-08-17T14:35:28.147Z,38.15
2022-08-17T14:37:56.407Z,40.72
2022-08-17T14:40:25.293Z,42.65
2022-08-17T14:42:55.613Z,38.47
2022-08-17T14:45:30.389Z,39.05
2022-08-17T14:48:09.723Z,36.17
2022-08-17T14:50:41.131Z,39.22
2022-08-17T14:53:12.508Z,31.58
2022-08-17T14:55:40.836Z,24.08
2022-08-17T14:58:09.259Z,26.10
2022-08-17T15:00:40.885Z,27.98
2022-08-17T15:03:08.619Z,29.63
2022-08-17T15:05:38.815Z,28.10
2022-08-17T15:08:07.431Z,30.13
2022-08-17T15:10:35.898Z,28.67
2022-08-17T15:13:03.921Z,28.92
2022-08-17T15:15:31.852Z,29.80
2022-08-17T15:18:00.030Z,27.27
2022-08-17T15:20:30.033Z,27.45
2022-08-17T15:22:59.218Z,25.58
2022-08-17T15:25:31.922Z,25.55
2022-08-17T15:28:00.693Z,26.45
2022-08-17T15:30:28.935Z,26.90
2022-08-17T15:32:59.185Z,24.73
2022-08-17T15:35:32.816Z,28.00
2022-08-17T15:38:10.743Z,28.45
2022-08-17T15:40:44.304Z,28.48
2022-08-17T15:43:27.558Z,28.70
2022-08-17T15:46:06.955Z,28.30
2022-08-17T15:48:41.907Z,25.65
2022-08-17T15:51:25.402Z,26.40
2022-08-17T15:54:00.392Z,26.42
2022-08-17T15:56:32.879Z,25.98
2022-08-17T15:59:01.139Z,24.65
2022-08-17T16:03:01.011Z,25.88
2022-08-17T16:04:26.863Z,23.77
2022-08-17T16:07:00.285Z,21.70
2022-08-17T16:09:28.317Z,21.77
2022-08-17T16:11:56.570Z,23.98
2022-08-17T16:14:32.464Z,27.77
2022-08-17T16:17:04.594Z,31.65
2022-08-17T16:19:34.304Z,32.20
2022-08-17T16:22:03.023Z,28.58
2022-08-17T16:24:31.959Z,26.95
2022-08-17T16:27:00.088Z,31.00
2022-08-17T16:29:28.354Z,34.50
2022-08-17T16:31:57.434Z,34.38
2022-08-17T16:34:25.216Z,42.00
2022-08-17T16:36:54.920Z,43.78
2022-08-17T16:39:27.492Z,42.17
2022-08-17T16:41:56.248Z,41.00
2022-08-17T16:44:25.713Z,36.45
2022-08-17T16:46:53.519Z,32.53
2022-08-17T16:49:35.403Z,28.38
2022-08-17T16:52:12.617Z,19.42
2022-08-17T16:54:43.936Z,20.30
2022-08-17T16:57:14.230Z,13.68
2022-08-17T16:59:47.799Z,11.32
2022-08-17T17:02:43.594Z,10.32
2022-08-17T17:05:20.057Z,10.25
2022-08-17T17:08:08.879Z,10.88
2022-08-17T17:10:49.762Z,10.95
2022-08-17T17:13:39.020Z,11.25
2022-08-17T17:16:23.962Z,11.30
2022-08-17T17:19:34.513Z,13.13
2022-08-17T17:22:25.211Z,13.27
2022-08-17T17:25:17.973Z,12.88
2022-08-17T17:27:52.940Z,12.77
2022-08-17T17:30:24.831Z,16.00
2022-08-17T17:33:36.843Z,16.73
2022-08-17T17:36:30.039Z,18.10
2022-08-17T17:39:29.207Z,17.85
2022-08-17T17:42:07.513Z,18.98
2022-08-17T17:44:43.741Z,20.25
2022-08-17T17:47:13.354Z,20.75
2022-08-17T17:49:45.027Z,23.67
2022-08-17T17:52:38.372Z,22.95
2022-08-17T17:55:44.373Z,24.60
2022-08-17T17:58:57.914Z,24.93
2022-08-17T18:01:54.195Z,26.63
2022-08-17T18:04:32.978Z,27.75
2022-08-17T18:07:30.569Z,28.45
2022-08-17T18:10:19.519Z,28.55
2022-08-17T18:13:11.139Z,26.48
2022-08-17T18:15:53.059Z,26.00
2022-08-17T18:18:37.811Z,22.85
2022-08-17T18:21:16.291Z,20.05
2022-08-17T18:24:03.881Z,18.65
2022-08-17T18:26:45.035Z,15.73
2022-08-17T18:29:28.044Z,15.23
2022-08-17T18:32:22.015Z,12.48
2022-08-17T18:34:55.633Z,12.70
2022-08-17T18:38:20.406Z,12.45
2022-08-17T18:41:16.062Z,11.88
2022-08-17T18:43:53.523Z,10.57
2022-08-17T18:46:36.581Z,9.48
2022-08-17T18:49:29.159Z,9.88
2022-08-17T18:52:14.045Z,9.13
2022-08-17T18:55:11.164Z,10.52
2022-08-17T18:57:45.975Z,9.70
2022-08-17T19:00:36.929Z,9.70
2022-08-17T19:03:26.125Z,9.50
2022-08-17T19:05:57.697Z,9.18
2022-08-17T19:08:28.751Z,9.23
2022-08-17T19:11:20.960Z,9.38
2022-08-17T19:14:12.521Z,9.23
2022-08-17T19:17:12.629Z,9.02
2022-08-17T19:20:05.004Z,8.93
2022-08-17T19:23:09.216Z,8.48
2022-08-17T19:25:46.306Z,8.60
2022-08-17T19:28:23.788Z,8.32
2022-08-17T19:31:01.961Z,8.27
2022-08-17T19:33:31.424Z,8.77
2022-08-17T19:36:15.530Z,8.25
2022-08-17T19:39:04.861Z,8.63
2022-08-17T19:41:54.667Z,8.90
2022-08-17T19:44:46.514Z,8.45
2022-08-17T19:48:05.101Z,9.07
2022-08-17T19:50:45.847Z,11.77
2022-08-17T19:54:01.746Z,10.50
2022-08-17T19:56:47.667Z,10.30
2022-08-17T20:00:18.176Z,11.63
2022-08-17T20:03:19.483Z,13.55
2022-08-17T20:06:14.025Z,14.27
2022-08-17T20:09:17.883Z,15.85
2022-08-17T20:12:04.151Z,14.85
2022-08-17T20:14:53.574Z,14.30
2022-08-17T20:17:30.581Z,17.55
2022-08-17T20:20:58.640Z,18.20
2022-08-17T20:23:52.133Z,17.50
2022-08-17T20:26:33.859Z,19.05
2022-08-17T20:29:37.162Z,17.85
2022-08-17T20:32:22.108Z,17.88
2022-08-17T20:35:09.061Z,17.67
2022-08-17T20:37:44.213Z,17.63
2022-08-17T20:40:23.403Z,15.70
2022-08-17T20:42:51.122Z,19.40
2022-08-17T20:45:21.729Z,17.10
2022-08-17T20:48:33.318Z,17.75
2022-08-17T20:50:58.991Z,16.80
2022-08-17T20:53:49.728Z,15.45
2022-08-17T20:56:43.143Z,16.25
2022-08-17T20:59:25.458Z,17.13
2022-08-17T21:02:18.284Z,16.55
2022-08-17T21:04:54.489Z,17.35
2022-08-17T21:07:43.526Z,15.80
2022-08-17T21:10:35.647Z,16.73
2022-08-17T21:13:13.450Z,16.33
2022-08-17T21:16:03.257Z,18.70
2022-08-17T21:19:18.712Z,16.83
2022-08-17T21:22:06.742Z,15.45
2022-08-17T21:25:07.060Z,15.68
2022-08-17T21:27:42.747Z,15.43
2022-08-17T21:30:11.847Z,15.60
2022-08-17T21:32:42.093Z,15.38
2022-08-17T21:35:28.898Z,16.80
2022-08-17T21:38:04.422Z,17.92
2022-08-17T21:40:33.891Z,19.23
2022-08-17T21:43:23.829Z,20.27
2022-08-17T21:46:45.844Z,20.30
2022-08-17T21:49:17.973Z,20.50
2022-08-17T21:51:54.358Z,22.02
2022-08-17T21:54:35.497Z,19.90
2022-08-17T21:57:08.062Z,21.50
2022-08-17T21:59:39.939Z,19.63
2022-08-17T22:02:22.361Z,18.88
2022-08-17T22:05:07.524Z,18.58
2022-08-17T22:07:47.638Z,16.10
2022-08-17T22:10:44.565Z,16.75
2022-08-17T22:13:17.591Z,16.60
2022-08-17T22:16:27.863Z,15.00
2022-08-17T22:18:59.010Z,15.45
2022-08-17T22:21:27.249Z,16.73
2022-08-17T22:24:21.532Z,19.23
2022-08-17T22:27:03.435Z,17.40
2022-08-17T22:29:57.570Z,19.35
2022-08-17T22:32:41.658Z,19.73
2022-08-17T22:35:43.676Z,19.98
2022-08-17T22:38:20.663Z,19.48
2022-08-17T22:41:34.370Z,22.63
2022-08-17T22:44:49.037Z,22.45
2022-08-17T22:47:17.046Z,24.08
2022-08-17T22:49:57.719Z,23.95
2022-08-17T22:52:35.684Z,23.48
2022-08-17T22:55:31.648Z,23.88
2022-08-17T22:58:19.614Z,24.60
2022-08-17T23:00:49.728Z,24.85
2022-08-17T23:03:22.803Z,25.30
2022-08-17T23:06:08.345Z,26.05
2022-08-17T23:08:49.911Z,27.15
2022-08-17T23:11:17.555Z,28.55
2022-08-17T23:13:45.772Z,31.02
2022-08-17T23:16:14.892Z,33.90
2022-08-17T23:18:42.601Z,33.00
2022-08-17T23:21:10.229Z,33.85
2022-08-17T23:23:43.628Z,35.03
2022-08-17T23:26:11.698Z,33.72
2022-08-17T23:28:43.811Z,32.55
2022-08-17T23:31:13.665Z,31.42
2022-08-17T23:33:42.249Z,34.08
2022-08-17T23:36:15.349Z,33.38
2022-08-17T23:38:46.659Z,34.25
2022-08-17T23:41:18.157Z,37.70
2022-08-17T23:43:49.773Z,38.63
2022-08-17T23:46:18.245Z,39.25
2022-08-17T23:48:48.495Z,36.28
2022-08-17T23:51:33.447Z,37.85
2022-08-17T23:54:32.600Z,34.15
2022-08-17T23:57:02.575Z,30.77
2022-08-17T23:59:30.385Z,28.80
